createdAt,value
2024-05-09T00:00:38.968Z,13.99
2024-05-09T00:01:32.821Z,14.04
2024-05-09T00:02:32.898Z,14.04
2024-05-09T00:03:32.792Z,13.99
2024-05-09T00:04:32.897Z,14.03
2024-05-09T00:05:32.884Z,14.03
2024-05-09T00:06:32.778Z,13.93
2024-05-09T00:07:32.794Z,14.04
2024-05-09T00:08:32.851Z,14.07
2024-05-09T00:09:32.796Z,13.92
2024-05-09T00:10:36.240Z,13.90
2024-05-09T00:11:32.881Z,13.99
2024-05-09T00:12:32.788Z,14.00
2024-05-09T00:13:32.775Z,13.99
2024-05-09T00:14:32.849Z,13.90
2024-05-09T00:15:32.760Z,13.99
2024-05-09T00:16:32.753Z,14.00
2024-05-09T00:17:32.909Z,14.00
2024-05-09T00:18:32.830Z,13.92
2024-05-09T00:19:32.832Z,13.92
2024-05-09T00:20:38.037Z,13.92
2024-05-09T00:21:32.747Z,13.90
2024-05-09T00:22:32.738Z,13.89
2024-05-09T00:23:33.024Z,13.87
2024-05-09T00:24:32.753Z,13.96
2024-05-09T00:25:32.729Z,13.89
2024-05-09T00:26:32.844Z,13.87
2024-05-09T00:27:32.720Z,13.85
2024-05-09T00:28:32.723Z,13.86
2024-05-09T00:29:32.851Z,13.77
2024-05-09T00:30:35.450Z,13.79
2024-05-09T00:31:32.713Z,13.77
2024-05-09T00:32:32.892Z,13.74
2024-05-09T00:33:32.827Z,13.78
2024-05-09T00:34:32.734Z,13.75
2024-05-09T00:35:32.747Z,13.71
2024-05-09T00:36:32.702Z,13.60
2024-05-09T00:37:32.700Z,13.59
2024-05-09T00:38:32.855Z,13.62
2024-05-09T00:39:32.687Z,13.60
2024-05-09T00:40:38.731Z,13.59
2024-05-09T00:41:32.736Z,13.52
2024-05-09T00:42:32.680Z,13.53
2024-05-09T00:43:32.685Z,13.54
2024-05-09T00:44:32.731Z,13.49
2024-05-09T00:45:32.677Z,13.56
2024-05-09T00:46:32.674Z,13.42
2024-05-09T00:47:32.798Z,13.50
2024-05-09T00:48:32.776Z,13.49
2024-05-09T00:49:32.733Z,13.46
2024-05-09T00:51:32.652Z,13.53
2024-05-09T00:52:32.650Z,13.52
2024-05-09T00:53:32.747Z,13.38
2024-05-09T00:54:32.643Z,13.44
2024-05-09T00:55:32.653Z,13.39
2024-05-09T00:56:32.710Z,13.46
2024-05-09T00:57:32.635Z,13.39
2024-05-09T00:58:32.637Z,13.39
2024-05-09T00:59:32.676Z,13.37
2024-05-09T01:00:38.661Z,13.35
2024-05-09T01:01:32.695Z,13.41
2024-05-09T01:02:32.816Z,13.38
2024-05-09T01:03:32.865Z,13.42
2024-05-09T01:04:32.651Z,13.38
2024-05-09T01:05:32.745Z,13.37
2024-05-09T01:06:32.598Z,13.42
2024-05-09T01:07:32.618Z,13.41
2024-05-09T01:08:32.720Z,13.38
2024-05-09T01:09:32.610Z,13.38
2024-05-09T01:10:35.043Z,13.37
2024-05-09T01:11:32.765Z,13.33
2024-05-09T01:12:32.709Z,13.42
2024-05-09T01:13:32.585Z,13.31
2024-05-09T01:14:32.620Z,13.37
2024-05-09T01:15:32.577Z,13.31
2024-05-09T01:16:32.573Z,13.25
2024-05-09T01:17:32.667Z,13.31
2024-05-09T01:18:32.650Z,13.19
2024-05-09T01:19:32.839Z,13.27
2024-05-09T01:20:40.868Z,13.20
2024-05-09T01:21:32.555Z,13.19
2024-05-09T01:22:32.556Z,13.18
2024-05-09T01:23:32.712Z,13.30
2024-05-09T01:24:32.554Z,13.23
2024-05-09T01:25:32.554Z,13.27
2024-05-09T01:26:32.618Z,13.23
2024-05-09T01:27:32.537Z,13.19
2024-05-09T01:28:32.548Z,13.20
2024-05-09T01:29:32.605Z,13.19
2024-05-09T01:30:35.507Z,13.25
2024-05-09T01:31:32.539Z,13.20
2024-05-09T01:32:32.708Z,13.20
2024-05-09T01:33:32.980Z,13.18
2024-05-09T01:34:32.526Z,13.13
2024-05-09T01:35:32.573Z,13.12
2024-05-09T01:36:32.510Z,13.13
2024-05-09T01:37:32.509Z,13.08
2024-05-09T01:38:32.558Z,13.09
2024-05-09T01:39:32.501Z,13.13
2024-05-09T01:40:38.030Z,13.08
2024-05-09T01:41:32.552Z,13.08
2024-05-09T01:42:32.493Z,13.05
2024-05-09T01:43:32.498Z,13.08
2024-05-09T01:44:32.527Z,13.05
2024-05-09T01:45:32.501Z,13.01
2024-05-09T01:46:32.487Z,13.05
2024-05-09T01:47:32.602Z,13.03
2024-05-09T01:48:32.557Z,13.04
2024-05-09T01:49:32.574Z,13.01
2024-05-09T01:50:38.586Z,12.97
2024-05-09T01:51:32.478Z,13.00
2024-05-09T01:52:32.458Z,13.01
2024-05-09T01:53:32.543Z,13.01
2024-05-09T01:54:32.455Z,12.94
2024-05-09T01:55:32.449Z,13.01
2024-05-09T01:56:32.531Z,12.95
2024-05-09T01:57:32.442Z,12.97
2024-05-09T01:58:32.446Z,12.95
2024-05-09T01:59:32.598Z,12.95
2024-05-09T02:00:38.551Z,12.91
2024-05-09T02:01:55.391Z,12.86
2024-05-09T02:02:32.449Z,12.93
2024-05-09T02:03:32.542Z,12.87
2024-05-09T02:04:32.473Z,12.87
2024-05-09T02:05:32.563Z,12.95
2024-05-09T02:06:32.437Z,12.98
2024-05-09T02:07:32.406Z,12.90
2024-05-09T02:08:32.580Z,12.95
2024-05-09T02:09:32.401Z,12.91
2024-05-09T02:10:33.329Z,12.85
2024-05-09T02:11:32.554Z,12.83
2024-05-09T02:12:32.450Z,12.80
2024-05-09T02:13:32.387Z,12.87
2024-05-09T02:14:32.393Z,12.83
2024-05-09T02:15:32.386Z,12.85
2024-05-09T02:16:32.377Z,12.86
2024-05-09T02:17:32.520Z,12.80
2024-05-09T02:18:32.427Z,12.87
2024-05-09T02:19:32.762Z,12.86
2024-05-09T02:20:36.281Z,12.72
2024-05-09T02:21:32.361Z,12.70
2024-05-09T02:22:32.363Z,12.76
2024-05-09T02:23:32.464Z,12.75
2024-05-09T02:24:32.351Z,12.62
2024-05-09T02:25:32.504Z,12.58
2024-05-09T02:26:32.371Z,12.60
2024-05-09T02:27:32.337Z,12.65
2024-05-09T02:28:32.337Z,12.62
2024-05-09T02:29:32.479Z,12.60
2024-05-09T02:30:39.096Z,12.57
2024-05-09T02:31:32.329Z,12.58
2024-05-09T02:32:32.488Z,12.65
2024-05-09T02:33:32.519Z,12.62
2024-05-09T02:34:32.341Z,12.65
2024-05-09T02:35:32.409Z,12.62
2024-05-09T02:36:32.305Z,12.64
2024-05-09T02:37:32.304Z,12.67
2024-05-09T02:38:32.434Z,12.61
2024-05-09T02:39:32.296Z,12.57
2024-05-09T02:40:37.319Z,12.58
2024-05-09T02:41:32.337Z,12.58
2024-05-09T02:42:32.280Z,12.57
2024-05-09T02:43:32.311Z,12.55
2024-05-09T02:44:32.314Z,12.55
2024-05-09T02:45:32.307Z,12.45
2024-05-09T02:46:32.306Z,12.50
2024-05-09T02:47:32.409Z,12.54
2024-05-09T02:48:32.377Z,12.47
2024-05-09T02:49:32.341Z,12.46
2024-05-09T02:50:37.931Z,12.43
2024-05-09T02:51:32.253Z,12.47
2024-05-09T02:52:32.251Z,12.45
2024-05-09T02:53:32.329Z,12.46
2024-05-09T02:54:32.452Z,12.57
2024-05-09T02:55:32.345Z,12.53
2024-05-09T02:56:32.275Z,12.46
2024-05-09T02:57:32.229Z,12.47
2024-05-09T02:58:32.242Z,12.46
2024-05-09T02:59:32.305Z,12.46
2024-05-09T03:00:38.462Z,12.53
2024-05-09T03:01:32.239Z,12.49
2024-05-09T03:02:32.305Z,12.42
2024-05-09T03:03:32.433Z,12.49
2024-05-09T03:04:32.418Z,12.46
2024-05-09T03:05:32.449Z,12.39
2024-05-09T03:06:32.199Z,12.43
2024-05-09T03:07:32.207Z,12.43
2024-05-09T03:08:32.369Z,12.43
2024-05-09T03:09:32.198Z,12.37
2024-05-09T03:10:35.813Z,12.31
2024-05-09T03:11:32.300Z,12.36
2024-05-09T03:12:32.192Z,12.35
2024-05-09T03:13:32.177Z,12.29
2024-05-09T03:14:32.209Z,12.35
2024-05-09T03:15:32.162Z,12.31
2024-05-09T03:16:32.164Z,12.25
2024-05-09T03:17:32.359Z,12.25
2024-05-09T03:18:32.247Z,12.21
2024-05-09T03:19:32.243Z,12.25
2024-05-09T03:20:34.740Z,12.22
2024-05-09T03:21:32.172Z,12.24
2024-05-09T03:22:32.152Z,12.21
2024-05-09T03:23:32.162Z,12.21
2024-05-09T03:24:32.128Z,12.27
2024-05-09T03:25:32.154Z,12.27
2024-05-09T03:26:32.204Z,12.17
2024-05-09T03:27:32.145Z,12.20
2024-05-09T03:28:32.125Z,12.22
2024-05-09T03:29:32.182Z,12.12
2024-05-09T03:30:39.779Z,12.13
2024-05-09T03:31:32.113Z,12.15
2024-05-09T03:32:32.177Z,12.15
2024-05-09T03:33:32.339Z,12.15
2024-05-09T03:34:32.163Z,12.13
2024-05-09T03:35:32.131Z,12.17
2024-05-09T03:36:32.083Z,12.10
2024-05-09T03:37:32.085Z,12.10
2024-05-09T03:38:32.137Z,12.12
2024-05-09T03:39:32.076Z,12.12
2024-05-09T03:40:32.059Z,11.99
2024-05-09T03:41:32.187Z,12.00
2024-05-09T03:42:32.067Z,12.09
2024-05-09T03:43:32.053Z,12.13
2024-05-09T03:44:32.207Z,12.10
2024-05-09T03:45:32.043Z,12.17
2024-05-09T03:46:32.045Z,12.06
2024-05-09T03:47:32.182Z,12.13
2024-05-09T03:48:32.193Z,12.13
2024-05-09T03:49:32.123Z,12.12
2024-05-09T03:50:35.565Z,12.07
2024-05-09T03:51:32.025Z,12.00
2024-05-09T03:52:32.028Z,12.02
2024-05-09T03:53:32.207Z,12.00
2024-05-09T03:54:32.030Z,12.03
2024-05-09T03:55:32.178Z,12.00
2024-05-09T03:56:32.088Z,12.02
2024-05-09T03:57:32.011Z,12.06
2024-05-09T03:58:31.998Z,11.97
2024-05-09T03:59:32.097Z,11.91
2024-05-09T04:00:37.916Z,12.00
2024-05-09T04:01:32.153Z,11.94
2024-05-09T04:02:32.102Z,11.91
2024-05-09T04:03:32.089Z,11.91
2024-05-09T04:04:32.117Z,11.90
2024-05-09T04:05:32.119Z,11.88
2024-05-09T04:06:31.974Z,11.95
2024-05-09T04:07:31.993Z,11.87
2024-05-09T04:08:31.993Z,11.91
2024-05-09T04:09:31.956Z,11.95
2024-05-09T04:10:34.129Z,11.99
2024-05-09T04:11:32.093Z,11.95
2024-05-09T04:12:32.049Z,11.88
2024-05-09T04:13:31.939Z,11.88
2024-05-09T04:14:32.003Z,11.83
2024-05-09T04:15:32.501Z,11.86
2024-05-09T04:16:31.933Z,11.83
2024-05-09T04:17:32.124Z,11.87
2024-05-09T04:18:31.996Z,11.88
2024-05-09T04:19:31.965Z,11.95
2024-05-09T04:20:37.948Z,11.95
2024-05-09T04:21:31.908Z,11.95
2024-05-09T04:22:31.905Z,11.94
2024-05-09T04:23:32.039Z,11.80
2024-05-09T04:24:31.897Z,11.84
2024-05-09T04:25:31.919Z,11.83
2024-05-09T04:26:31.950Z,11.77
2024-05-09T04:27:31.891Z,11.88
2024-05-09T04:28:31.897Z,11.80
2024-05-09T04:29:31.992Z,11.73
2024-05-09T04:30:37.812Z,11.78
2024-05-09T04:31:31.869Z,11.83
2024-05-09T04:32:31.971Z,11.86
2024-05-09T04:33:32.130Z,11.84
2024-05-09T04:34:31.933Z,11.81
2024-05-09T04:35:31.971Z,11.88
2024-05-09T04:36:31.853Z,11.81
2024-05-09T04:37:31.854Z,11.83
2024-05-09T04:38:31.948Z,11.83
2024-05-09T04:39:31.841Z,11.81
2024-05-09T04:40:35.161Z,11.77
2024-05-09T04:41:32.018Z,11.81
2024-05-09T04:42:31.832Z,11.78
2024-05-09T04:43:31.845Z,11.80
2024-05-09T04:44:31.916Z,11.87
2024-05-09T04:45:31.820Z,11.88
2024-05-09T04:46:31.807Z,11.83
2024-05-09T04:47:31.870Z,11.87
2024-05-09T04:48:31.902Z,11.80
2024-05-09T04:49:31.889Z,11.83
2024-05-09T04:50:36.715Z,11.81
2024-05-09T04:51:31.794Z,11.86
2024-05-09T04:52:31.797Z,11.97
2024-05-09T04:53:31.972Z,11.91
2024-05-09T04:54:36.391Z,11.95
2024-05-09T04:55:31.828Z,11.99
2024-05-09T04:56:31.853Z,12.02
2024-05-09T04:57:31.777Z,12.00
2024-05-09T04:58:31.765Z,11.99
2024-05-09T04:59:31.891Z,12.03
2024-05-09T05:00:36.442Z,12.13
2024-05-09T05:01:31.782Z,12.17
2024-05-09T05:02:31.832Z,12.10
2024-05-09T05:03:32.114Z,12.10
2024-05-09T05:04:31.809Z,12.10
2024-05-09T05:05:31.832Z,12.07
2024-05-09T05:06:31.735Z,12.13
2024-05-09T05:07:31.741Z,12.18
2024-05-09T05:08:31.949Z,12.15
2024-05-09T05:09:31.735Z,12.15
2024-05-09T05:10:35.927Z,12.17
2024-05-09T05:11:31.768Z,12.12
2024-05-09T05:12:31.824Z,12.10
2024-05-09T05:13:31.713Z,12.12
2024-05-09T05:14:31.757Z,12.17
2024-05-09T05:15:31.704Z,12.22
2024-05-09T05:16:31.705Z,12.24
2024-05-09T05:17:31.873Z,12.22
2024-05-09T05:18:31.730Z,12.36
2024-05-09T05:19:31.824Z,12.35
2024-05-09T05:20:33.816Z,12.32
2024-05-09T05:21:31.699Z,12.37
2024-05-09T05:22:31.693Z,12.31
2024-05-09T05:23:31.737Z,12.37
2024-05-09T05:24:31.677Z,12.39
2024-05-09T05:25:31.671Z,12.39
2024-05-09T05:26:31.796Z,12.35
2024-05-09T05:27:31.656Z,12.43
2024-05-09T05:28:31.663Z,12.45
2024-05-09T05:29:31.673Z,12.37
2024-05-09T05:30:34.637Z,12.46
2024-05-09T05:31:31.667Z,12.45
2024-05-09T05:32:31.834Z,12.46
2024-05-09T05:33:31.924Z,12.50
2024-05-09T05:34:31.642Z,12.55
2024-05-09T05:35:31.805Z,12.49
2024-05-09T05:36:31.637Z,12.70
2024-05-09T05:37:31.630Z,12.67
2024-05-09T05:38:31.652Z,12.83
2024-05-09T05:39:31.630Z,12.95
2024-05-09T05:40:36.532Z,13.08
2024-05-09T05:41:31.693Z,13.13
2024-05-09T05:42:31.617Z,13.37
2024-05-09T05:43:31.611Z,13.39
2024-05-09T05:44:31.751Z,13.47
2024-05-09T05:45:31.623Z,13.57
2024-05-09T05:46:31.623Z,13.77
2024-05-09T05:47:31.688Z,13.87
2024-05-09T05:48:31.739Z,13.90
2024-05-09T05:49:31.677Z,14.05
2024-05-09T05:50:35.677Z,14.14
2024-05-09T05:51:31.641Z,14.33
2024-05-09T05:52:31.640Z,14.33
2024-05-09T05:53:31.694Z,14.53
2024-05-09T05:54:31.654Z,14.55
2024-05-09T05:55:31.664Z,14.68
2024-05-09T05:56:31.727Z,14.62
2024-05-09T05:57:31.662Z,14.59
2024-05-09T05:58:31.666Z,14.69
2024-05-09T05:59:31.845Z,14.85
2024-05-09T06:00:37.931Z,14.89
2024-05-09T06:01:31.755Z,14.96
2024-05-09T06:02:31.833Z,15.09
2024-05-09T06:03:31.875Z,15.17
2024-05-09T06:04:31.739Z,15.35
2024-05-09T06:05:31.795Z,15.39
2024-05-09T06:06:31.721Z,15.46
2024-05-09T06:07:31.727Z,15.54
2024-05-09T06:08:31.818Z,15.59
2024-05-09T06:09:31.743Z,15.57
2024-05-09T06:10:37.849Z,15.77
2024-05-09T06:11:31.955Z,15.83
2024-05-09T06:12:31.773Z,15.90
2024-05-09T06:13:31.777Z,16.01
2024-05-09T06:14:31.828Z,16.05
2024-05-09T06:15:31.806Z,16.12
2024-05-09T06:16:31.801Z,16.23
2024-05-09T06:17:31.991Z,16.33
2024-05-09T06:18:32.131Z,16.31
2024-05-09T06:19:32.005Z,16.38
2024-05-09T06:20:36.175Z,16.50
2024-05-09T06:21:31.863Z,16.58
2024-05-09T06:22:31.863Z,16.64
2024-05-09T06:23:31.958Z,16.71
2024-05-09T06:24:31.888Z,16.72
2024-05-09T06:25:31.986Z,16.83
2024-05-09T06:26:31.981Z,17.04
2024-05-09T06:27:31.914Z,17.12
2024-05-09T06:28:31.932Z,17.24
2024-05-09T06:29:31.964Z,17.33
2024-05-09T06:30:38.347Z,17.33
2024-05-09T06:31:31.981Z,17.48
2024-05-09T06:32:32.122Z,17.57
2024-05-09T06:33:32.194Z,17.67
2024-05-09T06:34:32.049Z,17.72
2024-05-09T06:35:32.068Z,17.78
2024-05-09T06:36:32.021Z,17.85
2024-05-09T06:37:32.031Z,17.87
2024-05-09T06:38:32.071Z,17.89
2024-05-09T06:39:32.052Z,17.95
2024-05-09T06:40:37.459Z,17.95
2024-05-09T06:41:32.167Z,18.03
2024-05-09T06:42:32.092Z,18.00
2024-05-09T06:43:32.107Z,18.00
2024-05-09T06:44:32.179Z,18.08
2024-05-09T06:45:32.138Z,18.10
2024-05-09T06:46:32.144Z,18.26
2024-05-09T06:47:32.354Z,18.31
2024-05-09T06:48:32.299Z,18.45
2024-05-09T06:49:32.299Z,18.43
2024-05-09T06:50:37.481Z,18.45
2024-05-09T06:51:32.202Z,18.58
2024-05-09T06:52:32.226Z,18.70
2024-05-09T06:53:32.392Z,18.71
2024-05-09T06:54:32.250Z,18.77
2024-05-09T06:55:32.257Z,18.86
2024-05-09T06:56:32.327Z,18.83
2024-05-09T06:57:32.274Z,18.86
2024-05-09T06:58:32.306Z,18.90
2024-05-09T06:59:32.395Z,18.93
2024-05-09T07:00:38.613Z,19.11
2024-05-09T07:01:32.395Z,19.15
2024-05-09T07:02:32.451Z,19.24
2024-05-09T07:03:32.459Z,19.29
2024-05-09T07:04:32.482Z,19.39
2024-05-09T07:05:32.442Z,19.41
2024-05-09T07:06:32.405Z,19.63
2024-05-09T07:07:32.414Z,19.62
2024-05-09T07:08:32.530Z,19.55
2024-05-09T07:09:32.455Z,19.67
2024-05-09T07:10:35.307Z,19.66
2024-05-09T07:11:32.556Z,19.70
2024-05-09T07:12:32.756Z,19.73
2024-05-09T07:13:32.499Z,19.95
2024-05-09T07:14:33.979Z,19.89
2024-05-09T07:15:32.527Z,20.03
2024-05-09T07:16:32.562Z,20.04
2024-05-09T07:17:32.704Z,20.06
2024-05-09T07:18:32.698Z,20.10
2024-05-09T07:19:32.677Z,20.22
2024-05-09T07:20:34.957Z,20.29
2024-05-09T07:21:32.634Z,20.41
2024-05-09T07:22:32.630Z,20.43
2024-05-09T07:23:32.773Z,20.43
2024-05-09T07:24:32.662Z,20.41
2024-05-09T07:25:32.682Z,20.47
2024-05-09T07:26:32.766Z,20.58
2024-05-09T07:27:32.706Z,20.66
2024-05-09T07:28:32.717Z,20.78
2024-05-09T07:29:34.757Z,20.74
2024-05-09T07:30:34.537Z,20.77
2024-05-09T07:31:32.862Z,20.74
2024-05-09T07:32:32.919Z,20.82
2024-05-09T07:33:32.869Z,20.92
2024-05-09T07:34:32.860Z,20.90
2024-05-09T07:35:33.199Z,20.85
2024-05-09T07:36:32.837Z,21.03
2024-05-09T07:37:32.853Z,21.07
2024-05-09T07:38:32.904Z,21.09
2024-05-09T07:39:32.883Z,21.11
2024-05-09T07:40:36.366Z,21.18
2024-05-09T07:41:33.017Z,21.25
2024-05-09T07:42:32.932Z,21.27
2024-05-09T07:43:32.950Z,21.32
2024-05-09T07:44:33.220Z,21.27
2024-05-09T07:50:33.320Z,21.27
2024-05-09T07:52:23.418Z,21.32
2024-05-09T07:53:08.902Z,21.24
2024-05-09T07:53:33.039Z,21.17
2024-05-09T07:53:40.923Z,21.24
2024-05-09T07:54:33.273Z,21.20
2024-05-09T07:55:33.378Z,21.30
2024-05-09T07:56:33.294Z,21.27
2024-05-09T07:57:33.220Z,21.15
2024-05-09T07:58:33.179Z,21.24
2024-05-09T07:59:37.168Z,21.22
2024-05-09T08:00:33.438Z,21.29
2024-05-09T08:01:33.323Z,21.30
2024-05-09T08:02:33.389Z,21.39
2024-05-09T08:03:33.499Z,21.39
2024-05-09T08:04:33.382Z,21.42
2024-05-09T08:05:33.518Z,21.39
2024-05-09T08:06:33.310Z,21.35
2024-05-09T08:07:33.316Z,21.36
2024-05-09T08:08:33.353Z,21.32
2024-05-09T08:09:34.652Z,21.35
2024-05-09T08:10:33.362Z,21.48
2024-05-09T08:11:33.407Z,21.43
2024-05-09T08:12:33.416Z,21.45
2024-05-09T08:13:33.384Z,21.55
2024-05-09T08:14:33.407Z,21.50
2024-05-09T08:15:33.467Z,21.46
2024-05-09T08:16:33.498Z,21.48
2024-05-09T08:17:33.507Z,21.54
2024-05-09T08:18:33.732Z,21.43
2024-05-09T08:19:33.518Z,21.64
2024-05-09T08:20:35.318Z,21.66
2024-05-09T08:21:33.531Z,21.60
2024-05-09T08:22:33.494Z,21.73
2024-05-09T08:23:33.489Z,21.80
2024-05-09T08:24:33.537Z,21.80
2024-05-09T08:25:33.521Z,21.76
2024-05-09T08:26:33.522Z,21.61
2024-05-09T08:27:33.562Z,21.72
2024-05-09T08:28:33.541Z,21.72
2024-05-09T08:29:33.562Z,21.75
2024-05-09T08:30:37.147Z,21.72
2024-05-09T08:31:33.654Z,21.70
2024-05-09T08:32:33.592Z,21.79
2024-05-09T08:33:33.896Z,21.80
2024-05-09T08:34:33.653Z,21.76
2024-05-09T08:35:33.644Z,21.80
2024-05-09T08:36:33.606Z,21.66
2024-05-09T08:37:38.687Z,21.69
2024-05-09T08:38:33.621Z,21.58
2024-05-09T08:39:33.663Z,21.70
2024-05-09T08:40:36.141Z,21.62
2024-05-09T08:41:33.621Z,21.70
2024-05-09T08:42:33.679Z,21.48
2024-05-09T08:43:33.632Z,21.45
2024-05-09T08:44:33.632Z,21.51
2024-05-09T08:45:33.713Z,21.55
2024-05-09T08:46:33.744Z,21.60
2024-05-09T08:47:33.746Z,21.61
2024-05-09T08:48:33.816Z,21.62
2024-05-09T08:49:33.720Z,21.52
2024-05-09T08:50:38.550Z,21.51
2024-05-09T08:51:33.709Z,21.51
2024-05-09T08:52:33.671Z,21.58
2024-05-09T08:53:33.678Z,21.48
2024-05-09T08:54:33.751Z,21.61
2024-05-09T08:55:33.688Z,21.51
2024-05-09T08:56:33.691Z,21.55
2024-05-09T08:57:33.735Z,21.51
2024-05-09T08:58:33.699Z,21.33
2024-05-09T08:59:33.707Z,21.32
2024-05-09T09:00:37.129Z,21.29
2024-05-09T09:01:33.782Z,21.20
2024-05-09T09:02:33.873Z,21.25
2024-05-09T09:03:34.234Z,21.03
2024-05-09T09:04:33.806Z,21.00
2024-05-09T09:05:34.039Z,20.97
2024-05-09T09:06:33.755Z,20.95
2024-05-09T09:07:33.773Z,20.99
2024-05-09T09:08:33.769Z,20.97
2024-05-09T09:09:33.784Z,21.11
2024-05-09T09:10:34.004Z,21.12
2024-05-09T09:11:33.805Z,21.07
2024-05-09T09:12:33.814Z,21.14
2024-05-09T09:13:33.764Z,21.09
2024-05-09T09:14:33.763Z,21.12
2024-05-09T09:15:33.783Z,21.09
2024-05-09T09:16:33.780Z,21.11
2024-05-09T09:17:33.886Z,21.03
2024-05-09T09:18:33.940Z,21.15
2024-05-09T09:19:33.853Z,21.12
2024-05-09T09:20:36.676Z,21.20
2024-05-09T09:21:33.838Z,21.20
2024-05-09T09:22:33.791Z,21.07
2024-05-09T09:23:33.787Z,21.11
2024-05-09T09:24:33.866Z,21.05
2024-05-09T09:25:33.814Z,21.06
2024-05-09T09:26:33.794Z,21.09
2024-05-09T09:27:33.818Z,21.03
2024-05-09T09:28:33.801Z,21.06
2024-05-09T09:29:33.809Z,21.14
2024-05-09T09:30:37.415Z,21.11
2024-05-09T09:31:34.063Z,21.06
2024-05-09T09:32:33.883Z,20.95
2024-05-09T09:33:34.115Z,20.96
2024-05-09T09:34:33.882Z,21.06
2024-05-09T09:35:33.855Z,21.11
2024-05-09T09:36:33.867Z,21.12
2024-05-09T09:37:33.827Z,21.12
2024-05-09T09:38:33.829Z,21.06
2024-05-09T09:39:33.875Z,21.03
2024-05-09T09:40:36.001Z,20.97
2024-05-09T09:41:33.853Z,21.00
2024-05-09T09:42:33.866Z,20.93
2024-05-09T09:43:33.836Z,20.87
2024-05-09T09:44:34.230Z,20.84
2024-05-09T09:45:33.946Z,20.90
2024-05-09T09:46:33.947Z,20.87
2024-05-09T09:47:33.960Z,20.82
2024-05-09T09:48:34.088Z,20.82
2024-05-09T09:49:33.966Z,20.84
2024-05-09T09:50:35.079Z,20.93
2024-05-09T09:51:33.906Z,20.90
2024-05-09T09:52:33.934Z,20.93
2024-05-09T09:53:33.874Z,20.87
2024-05-09T09:54:33.974Z,20.74
2024-05-09T09:55:33.899Z,20.78
2024-05-09T09:56:33.881Z,20.66
2024-05-09T09:57:33.940Z,20.59
2024-05-09T09:58:33.949Z,20.63
2024-05-09T09:59:33.883Z,20.58
2024-05-09T10:00:34.295Z,20.60
2024-05-09T10:01:34.048Z,20.60
2024-05-09T10:02:33.982Z,20.58
2024-05-09T10:03:34.174Z,20.51
2024-05-09T10:04:34.029Z,20.48
2024-05-09T10:05:34.269Z,20.36
2024-05-09T10:06:33.982Z,20.40
2024-05-09T10:07:33.896Z,20.31
2024-05-09T10:08:33.906Z,20.28
2024-05-09T10:09:33.966Z,20.37
2024-05-09T10:10:34.349Z,20.39
2024-05-09T10:11:41.669Z,20.21
2024-05-09T10:12:34.122Z,20.18
2024-05-09T10:13:34.012Z,20.22
2024-05-09T10:14:33.915Z,20.31
2024-05-09T10:15:33.962Z,20.24
2024-05-09T10:16:33.980Z,20.18
2024-05-09T10:17:34.094Z,20.28
2024-05-09T10:18:34.560Z,20.25
2024-05-09T10:19:34.156Z,20.14
2024-05-09T10:20:33.986Z,20.24
2024-05-09T10:21:34.004Z,20.13
2024-05-09T10:22:33.967Z,20.14
2024-05-09T10:23:33.944Z,20.21
2024-05-09T10:24:33.992Z,20.09
2024-05-09T10:25:33.940Z,20.06
2024-05-09T10:26:34.019Z,19.99
2024-05-09T10:27:33.986Z,19.91
2024-05-09T10:28:33.974Z,19.89
2024-05-09T10:29:33.955Z,19.89
2024-05-09T10:30:36.273Z,19.74
2024-05-09T10:31:34.032Z,19.71
2024-05-09T10:32:34.025Z,19.82
2024-05-09T10:33:34.125Z,19.71
2024-05-09T10:34:34.101Z,19.70
2024-05-09T10:35:33.950Z,19.77
2024-05-09T10:36:33.993Z,19.67
2024-05-09T10:37:33.999Z,19.76
2024-05-09T10:38:33.967Z,19.67
2024-05-09T10:39:33.974Z,19.74
2024-05-09T10:40:34.030Z,19.71
2024-05-09T10:41:33.972Z,19.63
2024-05-09T10:42:33.989Z,19.59
2024-05-09T10:43:33.981Z,19.64
2024-05-09T10:44:33.981Z,19.55
2024-05-09T10:45:34.000Z,19.54
2024-05-09T10:46:33.968Z,19.54
2024-05-09T10:47:34.066Z,19.51
2024-05-09T10:48:34.102Z,19.37
2024-05-09T10:49:34.011Z,19.40
2024-05-09T10:50:34.677Z,19.34
2024-05-09T10:51:34.018Z,19.36
2024-05-09T10:52:33.977Z,19.33
2024-05-09T10:53:33.987Z,19.34
2024-05-09T10:54:34.038Z,19.33
2024-05-09T10:55:34.019Z,19.39
2024-05-09T10:56:33.987Z,19.39
2024-05-09T10:57:34.016Z,19.33
2024-05-09T10:58:34.004Z,19.39
2024-05-09T10:59:33.997Z,19.41
2024-05-09T11:00:36.311Z,19.41
2024-05-09T11:01:34.130Z,19.30
2024-05-09T11:02:34.059Z,19.34
2024-05-09T11:03:34.372Z,19.37
2024-05-09T11:04:34.137Z,19.34
2024-05-09T11:05:34.161Z,19.34
2024-05-09T11:06:34.038Z,19.27
2024-05-09T11:07:34.102Z,19.30
2024-05-09T11:08:34.034Z,19.34
2024-05-09T11:09:34.038Z,19.39
2024-05-09T11:10:34.743Z,19.33
2024-05-09T11:11:34.075Z,19.26
2024-05-09T11:12:34.038Z,19.30
2024-05-09T11:13:34.011Z,19.34
2024-05-09T11:14:34.016Z,19.40
2024-05-09T11:15:34.038Z,19.40
2024-05-09T11:16:34.032Z,19.26
2024-05-09T11:17:34.154Z,19.31
2024-05-09T11:18:37.807Z,19.41
2024-05-09T11:19:34.064Z,19.30
2024-05-09T11:20:35.331Z,19.29
2024-05-09T11:21:34.049Z,19.31
2024-05-09T11:22:34.035Z,19.34
2024-05-09T11:23:34.023Z,19.31
2024-05-09T11:24:34.044Z,19.34
2024-05-09T11:25:34.028Z,19.31
2024-05-09T11:26:34.027Z,19.24
2024-05-09T11:27:34.054Z,19.26
2024-05-09T11:28:34.048Z,19.26
2024-05-09T11:29:34.032Z,19.22
2024-05-09T11:30:34.097Z,19.29
2024-05-09T11:31:34.186Z,19.15
2024-05-09T11:32:34.141Z,19.22
2024-05-09T11:33:34.116Z,19.31
2024-05-09T11:34:34.116Z,19.14
2024-05-09T11:35:34.050Z,19.15
2024-05-09T11:36:34.079Z,19.07
2024-05-09T11:37:36.838Z,19.09
2024-05-09T11:38:34.082Z,19.04
2024-05-09T11:39:34.071Z,19.04
2024-05-09T11:40:34.793Z,18.99
2024-05-09T11:41:34.051Z,19.07
2024-05-09T11:42:34.323Z,19.07
2024-05-09T11:43:34.116Z,19.11
2024-05-09T11:44:34.107Z,19.07
2024-05-09T11:45:34.221Z,19.14
2024-05-09T11:46:34.061Z,19.12
2024-05-09T11:47:34.153Z,19.12
2024-05-09T11:48:34.376Z,19.22
2024-05-09T11:49:34.144Z,19.26
2024-05-09T11:50:35.964Z,19.16
2024-05-09T11:51:34.128Z,19.19
2024-05-09T11:52:34.062Z,19.18
2024-05-09T11:53:34.088Z,19.16
2024-05-09T11:54:34.125Z,19.15
2024-05-09T11:55:34.138Z,19.15
2024-05-09T11:56:34.062Z,19.15
2024-05-09T11:57:34.080Z,19.18
2024-05-09T11:58:34.109Z,19.04
2024-05-09T11:59:34.078Z,19.07
2024-05-09T12:01:34.225Z,19.12
2024-05-09T12:02:34.282Z,19.18
2024-05-09T12:03:34.189Z,19.07
2024-05-09T12:04:34.208Z,19.04
2024-05-09T12:05:34.629Z,19.14
2024-05-09T12:06:34.151Z,19.14
2024-05-09T12:07:34.093Z,19.09
2024-05-09T12:08:34.093Z,19.08
2024-05-09T12:09:34.125Z,19.07
2024-05-09T12:10:36.012Z,19.15
2024-05-09T12:11:34.275Z,19.18
2024-05-09T12:12:36.728Z,19.18
2024-05-09T12:13:34.121Z,19.14
2024-05-09T12:14:34.087Z,19.12
2024-05-09T12:15:34.128Z,19.11
2024-05-09T12:16:34.210Z,19.18
2024-05-09T12:17:34.205Z,19.19
2024-05-09T12:18:34.252Z,19.24
2024-05-09T12:19:34.132Z,19.18
2024-05-09T12:20:37.851Z,19.22
2024-05-09T12:21:34.213Z,19.16
2024-05-09T12:22:34.122Z,19.24
2024-05-09T12:23:34.110Z,19.26
2024-05-09T12:24:34.187Z,19.16
2024-05-09T12:25:34.109Z,19.19
2024-05-09T12:26:34.105Z,19.29
2024-05-09T12:27:34.135Z,19.30
2024-05-09T12:28:34.108Z,19.31
2024-05-09T12:29:36.196Z,19.36
2024-05-09T12:30:38.120Z,19.37
2024-05-09T12:31:34.192Z,19.30
2024-05-09T12:32:34.216Z,19.29
2024-05-09T12:33:34.168Z,19.34
2024-05-09T12:34:34.166Z,19.29
2024-05-09T12:35:34.139Z,19.37
2024-05-09T12:36:34.197Z,19.41
2024-05-09T12:37:34.130Z,19.37
2024-05-09T12:38:34.137Z,19.36
2024-05-09T12:39:34.159Z,19.40
2024-05-09T12:40:37.441Z,19.48
2024-05-09T12:41:34.201Z,19.51
2024-05-09T12:42:34.129Z,19.55
2024-05-09T12:43:34.173Z,19.54
2024-05-09T12:44:34.138Z,19.55
2024-05-09T12:45:34.229Z,19.45
2024-05-09T12:46:34.161Z,19.41
2024-05-09T12:47:34.257Z,19.45
2024-05-09T12:48:34.348Z,19.39
2024-05-09T12:49:34.298Z,19.45
2024-05-09T12:50:34.854Z,19.37
2024-05-09T12:51:34.157Z,19.37
2024-05-09T12:52:34.151Z,19.36
2024-05-09T12:53:34.159Z,19.36
2024-05-09T12:54:34.193Z,19.39
2024-05-09T12:55:41.240Z,19.34
2024-05-09T12:56:34.148Z,19.39
2024-05-09T12:57:34.184Z,19.47
2024-05-09T12:58:34.155Z,19.49